sensor_id;sensor_type;location;lat;lon;timestamp;pressure;altitude;pressure_sealevel;temperature;humidity
41044;BME280;51680;49.806;18.774;2022-12-10T00:00:17;96021.97;;;3.86;91.17
41044;BME280;51680;49.806;18.774;2022-12-10T00:03:18;96036.06;;;3.80;90.70
41044;BME280;51680;49.806;18.774;2022-12-10T00:06:22;96019.00;;;3.78;90.78
41044;BME280;51680;49.806;18.774;2022-12-10T00:09:24;96022.22;;;3.81;91.29
41044;BME280;51680;49.806;18.774;2022-12-10T00:12:27;96021.78;;;3.89;90.79
41044;BME280;51680;49.806;18.774;2022-12-10T00:15:29;96022.41;;;3.92;90.80
41044;BME280;51680;49.806;18.774;2022-12-10T00:18:31;96020.38;;;3.97;90.67
41044;BME280;51680;49.806;18.774;2022-12-10T00:21:34;96029.53;;;4.03;90.42
41044;BME280;51680;49.806;18.774;2022-12-10T00:24:36;96026.13;;;4.02;90.20
41044;BME280;51680;49.806;18.774;2022-12-10T00:27:39;96017.47;;;4.03;90.35
41044;BME280;51680;49.806;18.774;2022-12-10T00:30:41;96023.44;;;4.04;89.89
41044;BME280;51680;49.806;18.774;2022-12-10T00:33:44;96031.19;;;4.04;90.21
41044;BME280;51680;49.806;18.774;2022-12-10T00:36:47;96037.00;;;4.07;89.80
41044;BME280;51680;49.806;18.774;2022-12-10T00:39:51;96035.16;;;4.09;89.56
41044;BME280;51680;49.806;18.774;2022-12-10T00:42:54;96039.47;;;4.09;89.60
41044;BME280;51680;49.806;18.774;2022-12-10T00:45:56;96047.34;;;4.07;89.61
41044;BME280;51680;49.806;18.774;2022-12-10T00:48:58;96048.78;;;4.11;89.88
41044;BME280;51680;49.806;18.774;2022-12-10T00:52:00;96053.78;;;4.14;89.55
41044;BME280;51680;49.806;18.774;2022-12-10T00:55:05;96048.69;;;4.13;89.21
41044;BME280;51680;49.806;18.774;2022-12-10T00:58:08;96051.56;;;4.08;89.30
41044;BME280;51680;49.806;18.774;2022-12-10T01:01:12;96065.13;;;4.12;89.70
41044;BME280;51680;49.806;18.774;2022-12-10T01:04:16;96062.38;;;4.15;89.09
41044;BME280;51680;49.806;18.774;2022-12-10T01:07:18;96059.41;;;4.07;88.45
41044;BME280;51680;49.806;18.774;2022-12-10T01:10:20;96064.28;;;4.11;89.25
41044;BME280;51680;49.806;18.774;2022-12-10T01:13:25;96065.66;;;4.17;89.07
41044;BME280;51680;49.806;18.774;2022-12-10T01:16:27;96079.03;;;4.23;89.64
41044;BME280;51680;49.806;18.774;2022-12-10T01:19:30;96088.06;;;4.30;89.26
41044;BME280;51680;49.806;18.774;2022-12-10T01:22:34;96081.72;;;4.36;89.24
41044;BME280;51680;49.806;18.774;2022-12-10T01:25:36;96085.88;;;4.38;88.63
41044;BME280;51680;49.806;18.774;2022-12-10T01:28:40;96082.25;;;4.41;88.56
41044;BME280;51680;49.806;18.774;2022-12-10T01:31:42;96083.09;;;4.41;88.70
41044;BME280;51680;49.806;18.774;2022-12-10T01:34:44;96089.16;;;4.40;88.63
41044;BME280;51680;49.806;18.774;2022-12-10T01:37:46;96090.75;;;4.43;88.83
41044;BME280;51680;49.806;18.774;2022-12-10T01:40:48;96089.72;;;4.45;88.66
41044;BME280;51680;49.806;18.774;2022-12-10T01:43:56;96084.47;;;4.47;88.50
41044;BME280;51680;49.806;18.774;2022-12-10T01:47:00;96081.88;;;4.47;88.68
41044;BME280;51680;49.806;18.774;2022-12-10T01:50:03;96077.38;;;4.50;88.53
41044;BME280;51680;49.806;18.774;2022-12-10T01:53:05;96080.69;;;4.52;88.44
41044;BME280;51680;49.806;18.774;2022-12-10T01:56:09;96075.53;;;4.52;88.27
41044;BME280;51680;49.806;18.774;2022-12-10T01:59:13;96077.19;;;4.53;88.17
41044;BME280;51680;49.806;18.774;2022-12-10T02:02:21;96079.03;;;4.51;88.06
41044;BME280;51680;49.806;18.774;2022-12-10T02:05:32;96083.44;;;4.49;88.06
41044;BME280;51680;49.806;18.774;2022-12-10T02:08:41;96098.84;;;4.51;88.02
41044;BME280;51680;49.806;18.774;2022-12-10T02:11:50;96101.25;;;4.54;87.86
41044;BME280;51680;49.806;18.774;2022-12-10T02:14:59;96108.63;;;4.60;87.76
41044;BME280;51680;49.806;18.774;2022-12-10T02:18:05;96102.44;;;4.62;88.21
41044;BME280;51680;49.806;18.774;2022-12-10T02:21:12;96095.41;;;4.64;87.45
41044;BME280;51680;49.806;18.774;2022-12-10T02:24:28;96107.44;;;4.65;87.62
41044;BME280;51680;49.806;18.774;2022-12-10T02:27:37;96097.91;;;4.66;87.34
41044;BME280;51680;49.806;18.774;2022-12-10T02:30:45;96098.75;;;4.66;87.13
41044;BME280;51680;49.806;18.774;2022-12-10T02:33:51;96093.97;;;4.60;87.04
41044;BME280;51680;49.806;18.774;2022-12-10T02:36:56;96090.00;;;4.55;87.54
41044;BME280;51680;49.806;18.774;2022-12-10T02:40:04;96090.19;;;4.52;87.54
41044;BME280;51680;49.806;18.774;2022-12-10T02:43:12;96097.94;;;4.52;87.41
41044;BME280;51680;49.806;18.774;2022-12-10T02:46:16;96095.34;;;4.52;87.29
41044;BME280;51680;49.806;18.774;2022-12-10T02:49:19;96101.34;;;4.52;87.50
41044;BME280;51680;49.806;18.774;2022-12-10T02:52:22;96105.50;;;4.41;86.84
41044;BME280;51680;49.806;18.774;2022-12-10T02:55:26;96110.97;;;4.36;87.24
41044;BME280;51680;49.806;18.774;2022-12-10T02:58:40;96103.47;;;4.46;87.76
41044;BME280;51680;49.806;18.774;2022-12-10T03:01:54;96113.53;;;4.50;87.41
41044;BME280;51680;49.806;18.774;2022-12-10T03:05:02;96122.03;;;4.52;87.15
41044;BME280;51680;49.806;18.774;2022-12-10T03:08:09;96123.50;;;4.56;87.38
41044;BME280;51680;49.806;18.774;2022-12-10T03:11:15;96110.50;;;4.58;87.40
41044;BME280;51680;49.806;18.774;2022-12-10T03:14:18;96125.88;;;4.45;86.77
41044;BME280;51680;49.806;18.774;2022-12-10T03:17:23;96131.44;;;4.53;87.67
41044;BME280;51680;49.806;18.774;2022-12-10T03:20:26;96147.47;;;4.58;87.24
41044;BME280;51680;49.806;18.774;2022-12-10T03:23:29;96130.88;;;4.62;87.65
41044;BME280;51680;49.806;18.774;2022-12-10T03:26:32;96138.44;;;4.65;86.93
41044;BME280;51680;49.806;18.774;2022-12-10T03:29:36;96136.59;;;4.67;87.18
41044;BME280;51680;49.806;18.774;2022-12-10T03:32:41;96139.00;;;4.70;86.69
41044;BME280;51680;49.806;18.774;2022-12-10T03:35:44;96141.38;;;4.73;86.75
41044;BME280;51680;49.806;18.774;2022-12-10T03:38:47;96123.41;;;4.72;86.46
41044;BME280;51680;49.806;18.774;2022-12-10T03:41:49;96121.72;;;4.71;86.86
41044;BME280;51680;49.806;18.774;2022-12-10T03:44:51;96127.72;;;4.71;86.76
41044;BME280;51680;49.806;18.774;2022-12-10T03:47:54;96124.22;;;4.72;86.52
41044;BME280;51680;49.806;18.774;2022-12-10T03:50:56;96129.59;;;4.69;86.66
41044;BME280;51680;49.806;18.774;2022-12-10T03:53:58;96122.00;;;4.66;86.19
41044;BME280;51680;49.806;18.774;2022-12-10T03:57:00;96114.66;;;4.60;86.66
41044;BME280;51680;49.806;18.774;2022-12-10T04:00:03;96126.81;;;4.58;87.14
41044;BME280;51680;49.806;18.774;2022-12-10T04:03:14;96137.91;;;4.60;86.72
41044;BME280;51680;49.806;18.774;2022-12-10T04:06:18;96148.97;;;4.62;87.00
41044;BME280;51680;49.806;18.774;2022-12-10T04:09:20;96160.13;;;4.63;86.53
41044;BME280;51680;49.806;18.774;2022-12-10T04:12:22;96173.69;;;4.66;86.55
41044;BME280;51680;49.806;18.774;2022-12-10T04:15:24;96166.59;;;4.70;86.71
41044;BME280;51680;49.806;18.774;2022-12-10T04:18:44;96184.75;;;4.68;86.28
41044;BME280;51680;49.806;18.774;2022-12-10T04:22:04;96179.59;;;4.68;86.55
41044;BME280;51680;49.806;18.774;2022-12-10T04:25:35;96175.25;;;4.69;86.08
41044;BME280;51680;49.806;18.774;2022-12-10T04:28:54;96182.94;;;4.70;86.44
41044;BME280;51680;49.806;18.774;2022-12-10T04:31:57;96182.94;;;4.70;86.34
41044;BME280;51680;49.806;18.774;2022-12-10T04:35:00;96199.06;;;4.74;86.26
41044;BME280;51680;49.806;18.774;2022-12-10T04:38:02;96188.09;;;4.70;86.51
41044;BME280;51680;49.806;18.774;2022-12-10T04:41:03;96197.59;;;4.70;86.08
41044;BME280;51680;49.806;18.774;2022-12-10T04:44:15;96182.94;;;4.70;86.15
41044;BME280;51680;49.806;18.774;2022-12-10T04:47:36;96207.00;;;4.71;86.02
41044;BME280;51680;49.806;18.774;2022-12-10T04:50:39;96214.56;;;4.74;86.30
41044;BME280;51680;49.806;18.774;2022-12-10T04:53:41;96218.00;;;4.74;86.11
41044;BME280;51680;49.806;18.774;2022-12-10T04:56:43;96209.25;;;4.77;86.57
41044;BME280;51680;49.806;18.774;2022-12-10T04:59:44;96222.88;;;4.79;86.01
41044;BME280;51680;49.806;18.774;2022-12-10T05:02:48;96223.53;;;4.82;86.21
41044;BME280;51680;49.806;18.774;2022-12-10T05:05:51;96220.84;;;4.84;85.79
41044;BME280;51680;49.806;18.774;2022-12-10T05:08:53;96215.78;;;4.82;85.66
41044;BME280;51680;49.806;18.774;2022-12-10T05:11:56;96198.69;;;4.80;86.17
41044;BME280;51680;49.806;18.774;2022-12-10T05:14:57;96195.47;;;4.76;86.21
41044;BME280;51680;49.806;18.774;2022-12-10T05:17:59;96178.56;;;4.71;85.58
41044;BME280;51680;49.806;18.774;2022-12-10T05:21:04;96172.94;;;4.64;86.14
41044;BME280;51680;49.806;18.774;2022-12-10T05:24:06;96183.84;;;4.55;86.42
41044;BME280;51680;49.806;18.774;2022-12-10T05:27:07;96186.69;;;4.51;86.44
41044;BME280;51680;49.806;18.774;2022-12-10T05:30:10;96184.41;;;4.46;86.53
41044;BME280;51680;49.806;18.774;2022-12-10T05:33:12;96179.56;;;4.40;86.23
41044;BME280;51680;49.806;18.774;2022-12-10T05:36:17;96189.91;;;4.40;86.29
41044;BME280;51680;49.806;18.774;2022-12-10T05:39:19;96193.41;;;4.39;86.84
41044;BME280;51680;49.806;18.774;2022-12-10T05:42:21;96162.06;;;4.31;86.47
41044;BME280;51680;49.806;18.774;2022-12-10T05:45:22;96166.66;;;4.26;86.45
41044;BME280;51680;49.806;18.774;2022-12-10T05:48:24;96166.75;;;4.25;86.79
41044;BME280;51680;49.806;18.774;2022-12-10T05:51:29;96185.63;;;4.25;86.63
41044;BME280;51680;49.806;18.774;2022-12-10T05:54:32;96189.25;;;4.23;86.87
41044;BME280;51680;49.806;18.774;2022-12-10T05:57:35;96187.50;;;4.23;86.50
41044;BME280;51680;49.806;18.774;2022-12-10T06:00:38;96197.81;;;4.23;86.76
41044;BME280;51680;49.806;18.774;2022-12-10T06:03:40;96216.63;;;4.25;86.93
41044;BME280;51680;49.806;18.774;2022-12-10T06:06:44;96227.34;;;4.33;86.87
41044;BME280;51680;49.806;18.774;2022-12-10T06:09:47;96231.59;;;4.34;86.87
41044;BME280;51680;49.806;18.774;2022-12-10T06:12:50;96236.59;;;4.37;86.50
41044;BME280;51680;49.806;18.774;2022-12-10T06:15:51;96236.41;;;4.40;86.19
41044;BME280;51680;49.806;18.774;2022-12-10T06:18:53;96238.09;;;4.41;86.60
41044;BME280;51680;49.806;18.774;2022-12-10T06:21:56;96244.25;;;4.39;86.47
41044;BME280;51680;49.806;18.774;2022-12-10T06:24:58;96245.72;;;4.43;86.75
41044;BME280;51680;49.806;18.774;2022-12-10T06:28:00;96248.91;;;4.48;86.63
41044;BME280;51680;49.806;18.774;2022-12-10T06:31:03;96266.69;;;4.52;86.44
41044;BME280;51680;49.806;18.774;2022-12-10T06:34:05;96272.59;;;4.54;85.82
41044;BME280;51680;49.806;18.774;2022-12-10T06:37:08;96285.25;;;4.59;86.07
41044;BME280;51680;49.806;18.774;2022-12-10T06:40:10;96286.00;;;4.61;86.19
41044;BME280;51680;49.806;18.774;2022-12-10T06:43:12;96288.50;;;4.62;86.22
41044;BME280;51680;49.806;18.774;2022-12-10T06:46:15;96277.13;;;4.65;86.03
41044;BME280;51680;49.806;18.774;2022-12-10T06:49:17;96267.97;;;4.59;86.02
41044;BME280;51680;49.806;18.774;2022-12-10T06:52:21;96273.16;;;4.59;86.03
41044;BME280;51680;49.806;18.774;2022-12-10T06:55:22;96280.19;;;4.57;86.16
41044;BME280;51680;49.806;18.774;2022-12-10T06:58:24;96280.91;;;4.59;85.97
41044;BME280;51680;49.806;18.774;2022-12-10T07:01:27;96288.66;;;4.59;85.56
41044;BME280;51680;49.806;18.774;2022-12-10T07:04:29;96287.94;;;4.57;85.80
41044;BME280;51680;49.806;18.774;2022-12-10T07:07:34;96286.19;;;4.58;86.09
41044;BME280;51680;49.806;18.774;2022-12-10T07:10:36;96278.44;;;4.58;85.86
41044;BME280;51680;49.806;18.774;2022-12-10T07:13:38;96273.34;;;4.56;85.94
41044;BME280;51680;49.806;18.774;2022-12-10T07:16:40;96273.34;;;4.56;85.56
41044;BME280;51680;49.806;18.774;2022-12-10T07:19:43;96270.69;;;4.58;85.60
41044;BME280;51680;49.806;18.774;2022-12-10T07:22:47;96279.34;;;4.57;85.84
41044;BME280;51680;49.806;18.774;2022-12-10T07:25:49;96277.59;;;4.57;85.41
41044;BME280;51680;49.806;18.774;2022-12-10T07:28:50;96281.28;;;4.53;85.36
41044;BME280;51680;49.806;18.774;2022-12-10T07:31:53;96274.53;;;4.51;86.02
41044;BME280;51680;49.806;18.774;2022-12-10T07:34:56;96272.16;;;4.48;85.73
41044;BME280;51680;49.806;18.774;2022-12-10T07:37:59;96275.53;;;4.48;85.88
41044;BME280;51680;49.806;18.774;2022-12-10T07:41:02;96282.56;;;4.46;85.98
41044;BME280;51680;49.806;18.774;2022-12-10T07:44:04;96280.50;;;4.37;85.90
41044;BME280;51680;49.806;18.774;2022-12-10T07:47:07;96288.91;;;4.41;85.97
41044;BME280;51680;49.806;18.774;2022-12-10T07:50:08;96281.16;;;4.41;86.13
41044;BME280;51680;49.806;18.774;2022-12-10T07:53:11;96291.31;;;4.44;85.98
41044;BME280;51680;49.806;18.774;2022-12-10T07:56:14;96288.91;;;4.41;86.02
41044;BME280;51680;49.806;18.774;2022-12-10T07:59:15;96286.25;;;4.42;85.67
41044;BME280;51680;49.806;18.774;2022-12-10T08:02:17;96283.44;;;4.45;86.01
41044;BME280;51680;49.806;18.774;2022-12-10T08:05:19;96283.38;;;4.47;85.57
41044;BME280;51680;49.806;18.774;2022-12-10T08:08:22;96285.38;;;4.42;85.56
41044;BME280;51680;49.806;18.774;2022-12-10T08:11:24;96285.16;;;4.46;85.72
41044;BME280;51680;49.806;18.774;2022-12-10T08:14:27;96285.94;;;4.47;86.01
41044;BME280;51680;49.806;18.774;2022-12-10T08:17:28;96280.88;;;4.45;85.71
41044;BME280;51680;49.806;18.774;2022-12-10T08:20:30;96292.22;;;4.43;85.67
41044;BME280;51680;49.806;18.774;2022-12-10T08:23:34;96290.63;;;4.40;85.79
41044;BME280;51680;49.806;18.774;2022-12-10T08:26:36;96297.75;;;4.37;85.83
41044;BME280;51680;49.806;18.774;2022-12-10T08:29:39;96295.91;;;4.39;85.75
41044;BME280;51680;49.806;18.774;2022-12-10T08:32:40;96302.97;;;4.35;86.20
41044;BME280;51680;49.806;18.774;2022-12-10T08:35:42;96308.00;;;4.38;86.27
41044;BME280;51680;49.806;18.774;2022-12-10T08:38:45;96309.28;;;4.45;86.22
41044;BME280;51680;49.806;18.774;2022-12-10T08:41:47;96305.72;;;4.48;85.77
41044;BME280;51680;49.806;18.774;2022-12-10T08:44:49;96300.44;;;4.49;85.88
41044;BME280;51680;49.806;18.774;2022-12-10T08:47:51;96282.03;;;4.55;85.87
41044;BME280;51680;49.806;18.774;2022-12-10T08:50:53;96291.59;;;4.53;85.14
41044;BME280;51680;49.806;18.774;2022-12-10T08:53:57;96291.69;;;4.52;85.17
41044;BME280;51680;49.806;18.774;2022-12-10T08:56:59;96285.50;;;4.54;85.88
41044;BME280;51680;49.806;18.774;2022-12-10T09:00:03;96289.59;;;4.58;85.80
41044;BME280;51680;49.806;18.774;2022-12-10T09:03:05;96290.50;;;4.57;85.18
41044;BME280;51680;49.806;18.774;2022-12-10T09:06:09;96283.50;;;4.59;85.61
41044;BME280;51680;49.806;18.774;2022-12-10T09:09:32;96290.13;;;4.49;84.88
41044;BME280;51680;49.806;18.774;2022-12-10T09:12:34;96294.56;;;4.47;85.19
41044;BME280;51680;49.806;18.774;2022-12-10T09:15:36;96289.22;;;4.50;85.30
41044;BME280;51680;49.806;18.774;2022-12-10T09:18:38;96277.03;;;4.52;85.61
41044;BME280;51680;49.806;18.774;2022-12-10T09:21:58;96274.16;;;4.57;85.82
41044;BME280;51680;49.806;18.774;2022-12-10T09:25:01;96275.56;;;4.62;85.36
41044;BME280;51680;49.806;18.774;2022-12-10T09:28:03;96278.69;;;4.53;85.29
41044;BME280;51680;49.806;18.774;2022-12-10T09:31:06;96274.28;;;4.55;85.12
41044;BME280;51680;49.806;18.774;2022-12-10T09:34:27;96280.63;;;4.50;85.57
41044;BME280;51680;49.806;18.774;2022-12-10T09:37:29;96277.03;;;4.52;85.84
41044;BME280;51680;49.806;18.774;2022-12-10T09:40:36;96270.47;;;4.61;85.63
41044;BME280;51680;49.806;18.774;2022-12-10T09:43:45;96271.72;;;4.69;85.41
41044;BME280;51680;49.806;18.774;2022-12-10T09:46:51;96265.34;;;4.75;84.74
41044;BME280;51680;49.806;18.774;2022-12-10T09:50:02;96277.09;;;4.80;84.47
41044;BME280;51680;49.806;18.774;2022-12-10T09:53:11;96265.81;;;4.81;84.88
41044;BME280;51680;49.806;18.774;2022-12-10T09:56:19;96265.53;;;4.86;84.41
41044;BME280;51680;49.806;18.774;2022-12-10T09:59:25;96259.06;;;4.79;84.26
41044;BME280;51680;49.806;18.774;2022-12-10T10:02:31;96261.56;;;4.66;84.37
41044;BME280;51680;49.806;18.774;2022-12-10T10:05:35;96266.41;;;4.57;84.62
41044;BME280;51680;49.806;18.774;2022-12-10T10:08:41;96261.63;;;4.51;84.73
41044;BME280;51680;49.806;18.774;2022-12-10T10:11:45;96263.72;;;4.44;85.26
41044;BME280;51680;49.806;18.774;2022-12-10T10:14:47;96272.56;;;4.40;85.04
41044;BME280;51680;49.806;18.774;2022-12-10T10:17:53;96273.56;;;4.38;85.01
41044;BME280;51680;49.806;18.774;2022-12-10T10:20:56;96274.25;;;4.41;85.15
41044;BME280;51680;49.806;18.774;2022-12-10T10:23:58;96274.41;;;4.38;85.64
41044;BME280;51680;49.806;18.774;2022-12-10T10:27:12;96268.22;;;4.41;85.29
41044;BME280;51680;49.806;18.774;2022-12-10T10:30:15;96275.91;;;4.42;85.40
41044;BME280;51680;49.806;18.774;2022-12-10T10:33:18;96270.38;;;4.48;85.29
41044;BME280;51680;49.806;18.774;2022-12-10T10:36:23;96262.53;;;4.50;85.19
41044;BME280;51680;49.806;18.774;2022-12-10T10:39:28;96259.88;;;4.51;84.91
41044;BME280;51680;49.806;18.774;2022-12-10T10:42:36;96257.84;;;4.56;85.21
41044;BME280;51680;49.806;18.774;2022-12-10T10:45:40;96259.31;;;4.46;84.81
41044;BME280;51680;49.806;18.774;2022-12-10T10:48:43;96260.41;;;4.42;85.28
41044;BME280;51680;49.806;18.774;2022-12-10T10:51:45;96267.75;;;4.34;85.58
41044;BME280;51680;49.806;18.774;2022-12-10T10:54:48;96260.41;;;4.42;85.58
41044;BME280;51680;49.806;18.774;2022-12-10T10:57:52;96262.41;;;4.37;85.53
41044;BME280;51680;49.806;18.774;2022-12-10T11:00:56;96262.78;;;4.31;85.10
41044;BME280;51680;49.806;18.774;2022-12-10T11:03:59;96263.69;;;4.30;85.59
41044;BME280;51680;49.806;18.774;2022-12-10T11:07:03;96266.25;;;4.30;85.83
41044;BME280;51680;49.806;18.774;2022-12-10T11:10:18;96260.56;;;4.39;85.67
41044;BME280;51680;49.806;18.774;2022-12-10T11:13:25;96257.06;;;4.40;85.50
41044;BME280;51680;49.806;18.774;2022-12-10T11:16:27;96257.41;;;4.34;85.57
41044;BME280;51680;49.806;18.774;2022-12-10T11:19:30;96257.78;;;4.28;85.19
41044;BME280;51680;49.806;18.774;2022-12-10T11:22:33;96265.44;;;4.30;85.49
41044;BME280;51680;49.806;18.774;2022-12-10T11:25:44;96275.69;;;4.31;85.64
41044;BME280;51680;49.806;18.774;2022-12-10T11:29:01;96269.03;;;4.27;85.63
41044;BME280;51680;49.806;18.774;2022-12-10T11:32:15;96267.38;;;4.26;85.52
41044;BME280;51680;49.806;18.774;2022-12-10T11:35:29;96256.28;;;4.24;86.10
41044;BME280;51680;49.806;18.774;2022-12-10T11:39:03;96257.06;;;4.26;85.43
41044;BME280;51680;49.806;18.774;2022-12-10T11:42:15;96258.72;;;4.27;86.45
41044;BME280;51680;49.806;18.774;2022-12-10T11:45:28;96259.28;;;4.32;85.78
41044;BME280;51680;49.806;18.774;2022-12-10T11:48:45;96249.50;;;4.37;86.05
41044;BME280;51680;49.806;18.774;2022-12-10T11:51:54;96252.09;;;4.37;85.46
41044;BME280;51680;49.806;18.774;2022-12-10T11:55:07;96252.44;;;4.31;85.83
41044;BME280;51680;49.806;18.774;2022-12-10T11:58:28;96257.63;;;4.31;85.40
41044;BME280;51680;49.806;18.774;2022-12-10T12:01:47;96254.78;;;4.20;85.66
41044;BME280;51680;49.806;18.774;2022-12-10T12:05:27;96254.22;;;4.15;86.42
41044;BME280;51680;49.806;18.774;2022-12-10T12:08:40;96258.47;;;4.16;86.03
41044;BME280;51680;49.806;18.774;2022-12-10T12:11:55;96244.91;;;4.13;86.06
41044;BME280;51680;49.806;18.774;2022-12-10T12:15:03;96237.81;;;4.16;86.19
41044;BME280;51680;49.806;18.774;2022-12-10T12:18:17;96238.75;;;4.15;85.98
41044;BME280;51680;49.806;18.774;2022-12-10T12:21:20;96250.00;;;4.14;86.58
41044;BME280;51680;49.806;18.774;2022-12-10T12:24:27;96248.97;;;4.17;86.14
41044;BME280;51680;49.806;18.774;2022-12-10T12:27:35;96243.91;;;4.15;86.14
41044;BME280;51680;49.806;18.774;2022-12-10T12:30:41;96243.25;;;4.12;86.54
41044;BME280;51680;49.806;18.774;2022-12-10T12:33:50;96245.00;;;4.11;86.53
41044;BME280;51680;49.806;18.774;2022-12-10T12:37:16;96240.03;;;4.08;86.81
41044;BME280;51680;49.806;18.774;2022-12-10T12:40:27;96241.03;;;4.06;86.52
41044;BME280;51680;49.806;18.774;2022-12-10T12:43:37;96253.66;;;4.10;86.53
41044;BME280;51680;49.806;18.774;2022-12-10T12:46:43;96247.69;;;4.10;86.61
41044;BME280;51680;49.806;18.774;2022-12-10T12:49:48;96245.34;;;4.05;86.53
41044;BME280;51680;49.806;18.774;2022-12-10T12:52:52;96232.84;;;4.13;86.62
41044;BME280;51680;49.806;18.774;2022-12-10T12:56:02;96244.25;;;4.09;86.89
41044;BME280;51680;49.806;18.774;2022-12-10T12:59:11;96238.44;;;4.06;86.69
41044;BME280;51680;49.806;18.774;2022-12-10T13:02:26;96250.50;;;4.05;87.23
41044;BME280;51680;49.806;18.774;2022-12-10T13:05:36;96255.03;;;4.02;87.00
41044;BME280;51680;49.806;18.774;2022-12-10T13:08:43;96271.34;;;4.02;86.90
41044;BME280;51680;49.806;18.774;2022-12-10T13:15:19;96271.66;;;4.12;87.03
41044;BME280;51680;49.806;18.774;2022-12-10T13:18:34;96281.34;;;4.08;86.92
41044;BME280;51680;49.806;18.774;2022-12-10T13:21:56;96276.16;;;4.08;87.06
41044;BME280;51680;49.806;18.774;2022-12-10T13:25:12;96274.31;;;4.10;87.08
41044;BME280;51680;49.806;18.774;2022-12-10T13:28:26;96275.16;;;4.11;86.70
41044;BME280;51680;49.806;18.774;2022-12-10T13:31:36;96281.34;;;4.08;87.19
41044;BME280;51680;49.806;18.774;2022-12-10T13:34:38;96279.66;;;4.07;86.97
41044;BME280;51680;49.806;18.774;2022-12-10T13:37:57;96291.66;;;4.08;87.07
41044;BME280;51680;49.806;18.774;2022-12-10T13:41:03;96292.00;;;4.02;87.22
41044;BME280;51680;49.806;18.774;2022-12-10T13:44:35;96287.34;;;3.93;87.24
41044;BME280;51680;49.806;18.774;2022-12-10T13:47:43;96284.84;;;3.92;87.84
41044;BME280;51680;49.806;18.774;2022-12-10T13:50:51;96288.50;;;3.88;87.67
41044;BME280;51680;49.806;18.774;2022-12-10T13:54:23;96280.84;;;3.86;87.89
41044;BME280;51680;49.806;18.774;2022-12-10T13:57:51;96276.69;;;3.84;87.62
41044;BME280;51680;49.806;18.774;2022-12-10T14:00:57;96276.63;;;3.85;88.23
41044;BME280;51680;49.806;18.774;2022-12-10T14:04:33;96285.28;;;3.84;88.21
41044;BME280;51680;49.806;18.774;2022-12-10T14:07:44;96276.69;;;3.84;87.84
41044;BME280;51680;49.806;18.774;2022-12-10T14:10:49;96281.84;;;3.84;88.29
41044;BME280;51680;49.806;18.774;2022-12-10T14:13:54;96287.00;;;3.84;87.94
41044;BME280;51680;49.806;18.774;2022-12-10T14:17:00;96289.53;;;3.85;88.19
41044;BME280;51680;49.806;18.774;2022-12-10T14:20:03;96291.03;;;3.89;88.12
41044;BME280;51680;49.806;18.774;2022-12-10T14:23:22;96286.00;;;3.86;88.08
41044;BME280;51680;49.806;18.774;2022-12-10T14:26:39;96295.03;;;3.79;88.33
41044;BME280;51680;49.806;18.774;2022-12-10T14:29:45;96301.84;;;3.80;88.32
41044;BME280;51680;49.806;18.774;2022-12-10T14:32:48;96300.34;;;3.76;89.04
41044;BME280;51680;49.806;18.774;2022-12-10T14:35:52;96293.19;;;3.81;88.66
41044;BME280;51680;49.806;18.774;2022-12-10T14:38:54;96298.84;;;3.72;89.19
41044;BME280;51680;49.806;18.774;2022-12-10T14:42:00;96299.59;;;3.74;88.83
41044;BME280;51680;49.806;18.774;2022-12-10T14:45:04;96283.19;;;3.75;88.77
41044;BME280;51680;49.806;18.774;2022-12-10T14:48:10;96279.53;;;3.79;88.86
41044;BME280;51680;49.806;18.774;2022-12-10T14:51:14;96282.94;;;3.80;88.38
41044;BME280;51680;49.806;18.774;2022-12-10T14:54:27;96285.69;;;3.77;88.38
41044;BME280;51680;49.806;18.774;2022-12-10T14:57:33;96293.44;;;3.77;88.73
41044;BME280;51680;49.806;18.774;2022-12-10T15:00:37;96300.25;;;3.78;88.88
41044;BME280;51680;49.806;18.774;2022-12-10T15:03:45;96300.91;;;3.81;88.34
41044;BME280;51680;49.806;18.774;2022-12-10T15:06:47;96300.91;;;3.81;88.72
41044;BME280;51680;49.806;18.774;2022-12-10T15:09:51;96296.84;;;3.77;88.27
41044;BME280;51680;49.806;18.774;2022-12-10T15:12:55;96296.53;;;3.83;88.70
41044;BME280;51680;49.806;18.774;2022-12-10T15:15:57;96300.69;;;3.70;89.20
41044;BME280;51680;49.806;18.774;2022-12-10T15:19:17;96301.34;;;3.74;88.75
41044;BME280;51680;49.806;18.774;2022-12-10T15:22:21;96295.75;;;3.66;89.23
41044;BME280;51680;49.806;18.774;2022-12-10T15:25:26;96288.88;;;3.66;88.82
41044;BME280;51680;49.806;18.774;2022-12-10T15:28:31;96286.94;;;3.70;89.13
41044;BME280;51680;49.806;18.774;2022-12-10T15:31:33;96293.75;;;3.71;88.72
41044;BME280;51680;49.806;18.774;2022-12-10T15:34:39;96278.47;;;3.68;88.73
41044;BME280;51680;49.806;18.774;2022-12-10T15:37:43;96278.38;;;3.69;88.73
41044;BME280;51680;49.806;18.774;2022-12-10T15:40:45;96280.19;;;3.67;88.75
41044;BME280;51680;49.806;18.774;2022-12-10T15:44:01;96285.38;;;3.67;89.04
41044;BME280;51680;49.806;18.774;2022-12-10T15:47:10;96278.38;;;3.69;89.13
41044;BME280;51680;49.806;18.774;2022-12-10T15:50:15;96288.72;;;3.69;89.10
41044;BME280;51680;49.806;18.774;2022-12-10T15:53:24;96290.53;;;3.67;89.20
41044;BME280;51680;49.806;18.774;2022-12-10T15:56:26;96279.53;;;3.64;89.36
41044;BME280;51680;49.806;18.774;2022-12-10T15:59:29;96287.94;;;3.67;89.12
41044;BME280;51680;49.806;18.774;2022-12-10T16:02:36;96283.69;;;3.66;88.68
41044;BME280;51680;49.806;18.774;2022-12-10T16:05:39;96290.38;;;3.70;89.17
41044;BME280;51680;49.806;18.774;2022-12-10T16:08:40;96297.34;;;3.68;89.12
41044;BME280;51680;49.806;18.774;2022-12-10T16:11:42;96287.03;;;3.68;88.89
41044;BME280;51680;49.806;18.774;2022-12-10T16:14:48;96281.78;;;3.70;89.19
41044;BME280;51680;49.806;18.774;2022-12-10T16:17:51;96284.38;;;3.70;89.28
41044;BME280;51680;49.806;18.774;2022-12-10T16:20:53;96280.03;;;3.70;89.13
41044;BME280;51680;49.806;18.774;2022-12-10T16:23:55;96282.03;;;3.65;89.23
41044;BME280;51680;49.806;18.774;2022-12-10T16:26:56;96277.13;;;3.61;89.53